R11 EFHA-EFJY

Flight info

Callsign R11
Flight time 0h 23m
Altitude 2000
Route VORJO RUOKE TC
Aircraft HAWK/M-SDGIRY/C

Departure

Time 2026-05-05 14:01
Airport Halli Airport (EFHA)

Arrival

Time 2026-05-05 14:24
Airport Jyväskylä Airport (EFJY)
Time Latitude Longitude Altitude Speed Heading
2026-05-05 13:56 61.85850 24.80311 490 ft 0 kts 84°
2026-05-05 13:58 61.85850 24.80321 490 ft 3 kts 84°
2026-05-05 13:58 61.85841 24.80409 490 ft 9 kts 132°
2026-05-05 13:59 61.85675 24.80563 491 ft 18 kts 92°
2026-05-05 13:59 61.85681 24.80833 492 ft 20 kts 87°
2026-05-05 14:00 61.85675 24.81057 491 ft 5 kts 287°
2026-05-05 14:00 61.85675 24.81043 491 ft 0 kts 261°
2026-05-05 14:01 61.85664 24.80608 491 ft 77 kts 267°
2026-05-05 14:01 61.85615 24.78772 733 ft 159 kts 267°
2026-05-05 14:01 61.85549 24.75895 1653 ft 233 kts 269°
2026-05-05 14:01 61.86310 24.72608 1761 ft 276 kts 323°
2026-05-05 14:02 61.88172 24.72462 1850 ft 289 kts 27°
2026-05-05 14:02 61.89386 24.75790 1844 ft 294 kts 61°
2026-05-05 14:02 61.90305 24.79722 1671 ft 299 kts 62°
2026-05-05 14:02 61.91033 24.83812 1606 ft 294 kts 73°
2026-05-05 14:03 61.91558 24.87971 1471 ft 290 kts 74°
2026-05-05 14:03 61.92107 24.92041 1437 ft 283 kts 72°
2026-05-05 14:03 61.92625 24.95956 1753 ft 265 kts 71°
2026-05-05 14:03 61.93279 24.99591 1743 ft 261 kts 56°
2026-05-05 14:04 61.94302 25.02818 1679 ft 270 kts 52°
2026-05-05 14:04 61.95376 25.06220 1514 ft 279 kts 54°
2026-05-05 14:04 61.96400 25.09687 1438 ft 274 kts 57°
2026-05-05 14:04 61.97349 25.13199 1328 ft 274 kts 57°
2026-05-05 14:05 61.98259 25.16721 1396 ft 268 kts 58°
2026-05-05 14:05 61.99135 25.20178 1455 ft 262 kts 57°
2026-05-05 14:05 62.00403 25.22705 1582 ft 242 kts 28°
2026-05-05 14:05 62.01739 25.24810 1614 ft 247 kts 36°
2026-05-05 14:06 62.03104 25.27130 1554 ft 253 kts 32°
2026-05-05 14:06 62.04535 25.29386 1646 ft 252 kts 33°
2026-05-05 14:06 62.05938 25.31584 1744 ft 254 kts 32°
2026-05-05 14:06 62.07331 25.33898 1947 ft 252 kts 36°
2026-05-05 14:07 62.08732 25.36132 2045 ft 252 kts 31°
2026-05-05 14:07 62.10225 25.38194 1997 ft 258 kts 30°
2026-05-05 14:07 62.11740 25.40321 1943 ft 264 kts 32°
2026-05-05 14:07 62.13193 25.42755 1975 ft 265 kts 33°
2026-05-05 14:08 62.14668 25.45092 2018 ft 263 kts 33°
2026-05-05 14:08 62.16160 25.47361 1926 ft 269 kts 32°
2026-05-05 14:08 62.17698 25.49717 1849 ft 273 kts 31°
2026-05-05 14:08 62.19260 25.51996 1942 ft 270 kts 31°
2026-05-05 14:09 62.20803 25.54286 1954 ft 269 kts 32°
2026-05-05 14:09 62.22346 25.56556 1922 ft 270 kts 30°
2026-05-05 14:09 62.23921 25.58722 2007 ft 266 kts 26°
2026-05-05 14:09 62.25530 25.60621 2041 ft 261 kts 22°
2026-05-05 14:10 62.27188 25.62135 2115 ft 258 kts 18°
2026-05-05 14:10 62.28878 25.63582 2035 ft 263 kts 17°
2026-05-05 14:10 62.30541 25.65117 2053 ft 263 kts 19°
2026-05-05 14:10 62.32248 25.66650 1935 ft 268 kts 18°
2026-05-05 14:11 62.33924 25.68378 1895 ft 264 kts 25°
2026-05-05 14:11 62.35525 25.70118 1660 ft 251 kts 20°
2026-05-05 14:11 62.36870 25.71822 1231 ft 195 kts 28°
2026-05-05 14:11 62.37990 25.72467 1037 ft 145 kts 325°
2026-05-05 14:12 62.38572 25.70932 688 ft 131 kts 304°
2026-05-05 14:12 62.39172 25.69579 490 ft 121 kts 308°
2026-05-05 14:12 62.39763 25.68282 538 ft 135 kts 315°
2026-05-05 14:12 62.40556 25.66505 1171 ft 196 kts 310°
2026-05-05 14:13 62.41621 25.63900 1832 ft 257 kts 296°
2026-05-05 14:13 62.41109 25.60582 1963 ft 258 kts 220°
2026-05-05 14:13 62.39615 25.58545 2050 ft 258 kts 191°
2026-05-05 14:13 62.38159 25.60646 1966 ft 272 kts 127°
2026-05-05 14:14 62.37085 25.63958 1988 ft 273 kts 126°
2026-05-05 14:14 62.35991 25.67375 1916 ft 276 kts 126°
2026-05-05 14:14 62.34951 25.70764 2020 ft 261 kts 112°
2026-05-05 14:14 62.35278 25.74070 1835 ft 220 kts 37°
2026-05-05 14:15 62.36516 25.75423 1532 ft 181 kts
2026-05-05 14:15 62.37352 25.74387 1126 ft 133 kts 290°
2026-05-05 14:15 62.37762 25.72624 961 ft 131 kts 309°
2026-05-05 14:15 62.38444 25.71279 747 ft 133 kts 309°
2026-05-05 14:16 62.39043 25.69856 526 ft 123 kts 304°
2026-05-05 14:16 62.39604 25.68608 473 ft 122 kts 315°
2026-05-05 14:16 62.40323 25.67028 992 ft 174 kts 309°
2026-05-05 14:16 62.41303 25.64693 1838 ft 253 kts 308°
2026-05-05 14:17 62.41716 25.61263 2225 ft 249 kts 241°
2026-05-05 14:17 62.40380 25.58966 2147 ft 243 kts 219°
2026-05-05 14:17 62.38829 25.59066 2010 ft 260 kts 137°
2026-05-05 14:17 62.37543 25.61964 1967 ft 277 kts 136°
2026-05-05 14:18 62.36186 25.64960 1968 ft 285 kts 137°
2026-05-05 14:18 62.34827 25.67933 2012 ft 269 kts 132°
2026-05-05 14:18 62.34716 25.71376 1981 ft 223 kts 48°
2026-05-05 14:18 62.35767 25.73409 1750 ft 192 kts 33°
2026-05-05 14:19 62.36868 25.74100 1458 ft 151 kts 338°
2026-05-05 14:19 62.37694 25.72944 1063 ft 140 kts 308°
2026-05-05 14:19 62.38340 25.71419 784 ft 135 kts 309°
2026-05-05 14:19 62.38994 25.70004 530 ft 129 kts 305°
2026-05-05 14:20 62.39585 25.68625 482 ft 129 kts 315°
2026-05-05 14:20 62.40323 25.66987 1106 ft 174 kts 309°
2026-05-05 14:20 62.41237 25.64776 2298 ft 235 kts 308°
2026-05-05 14:20 62.41676 25.61225 2343 ft 289 kts 238°
2026-05-05 14:21 62.40161 25.58442 2609 ft 283 kts 218°
2026-05-05 14:21 62.38370 25.59265 2310 ft 305 kts 133°
2026-05-05 14:21 62.36977 25.62610 2251 ft 286 kts 134°
2026-05-05 14:21 62.35706 25.65740 1909 ft 270 kts 133°
2026-05-05 14:22 62.34545 25.68709 1730 ft 250 kts 128°
2026-05-05 14:22 62.34677 25.71807 1688 ft 208 kts 51°
2026-05-05 14:22 62.35595 25.74007 1467 ft 190 kts 38°
2026-05-05 14:22 62.36652 25.75056 1338 ft 146 kts 338°
2026-05-05 14:23 62.37307 25.73763 1013 ft 126 kts 304°
2026-05-05 14:23 62.37907 25.72348 868 ft 132 kts 309°
2026-05-05 14:23 62.38572 25.70902 680 ft 138 kts 309°
2026-05-05 14:23 62.39231 25.69434 474 ft 131 kts 309°
2026-05-05 14:24 62.39777 25.68208 469 ft 95 kts 313°
2026-05-05 14:24 62.40177 25.67320 470 ft 71 kts 314°
2026-05-05 14:24 62.40463 25.66672 474 ft 40 kts 315°
2026-05-05 14:24 62.40521 25.66445 477 ft 10 kts 250°
2026-05-05 14:25 62.40487 25.66354 483 ft 7 kts 224°
2026-05-05 14:25 62.40448 25.66275 477 ft 9 kts 223°
2026-05-05 14:25 62.40393 25.66159 475 ft 13 kts 224°
2026-05-05 14:25 62.40315 25.65994 464 ft 18 kts 225°
2026-05-05 14:26 62.40220 25.65797 461 ft 17 kts 223°
2026-05-05 14:26 62.40190 25.65712 462 ft 3 kts 255°
2026-05-05 14:26 62.40180 25.65679 463 ft 0 kts 233°
2026-05-05 14:26 62.40180 25.65680 463 ft 0 kts 233°